Current Weather

Marina Muni

Marina, California (KOAR)

Report from: Wednesday, May 29, 2024 1:15 AM PDT
Current time: Wednesday, May 29, 2024 1:38 AM PDT

Nearby weather – Weather history – Daily summaries
Weather forecast

Temperature11.0°C (51.8°F)
Dew point8.0°C (46.4°F)
Winds 9 kts (4.6 m/s, 10.4 mph) West-Southwest (250°)
Visibility10 mi. (16.1 km)
Clouds Sky clear
Altimeter30.11 in.Hg (1020 mB)
Relative humidity82 %
Density altitude-540 ft. (-165 m)
Remarks Fully automated report
Automated weather observing station with precipitation discriminator
Flight conditions Visual Meteorological Conditions
Raw dataKOAR 290815Z AUTO 25009KT 10SM CLR 11/08 A3011 RMK AO2
An error has occurred. This application may no longer respond until reloaded. Reload 🗙